Allen, Maryland
Current Conditions -  °F | °C
As of 1:54 AM on Thursday 27 Nov 2014 (Local Time) from KSBY Reporting Station
Overcast Overcast  
Wind Chill: 36°   Ceiling: 1300
Heat Index: 41°   Visibility: 10mi
Dew Point: 35°   Wind: 7mph
Humidity: 79%   Direction: 280°W
Pressure: 29.99"   Gusts: NA
Location:  38.29°N, 75.69°W
Report Text: KSBY 270654Z AUTO 28006KT 10SM BKN013 OVC019 05/02 A2999 RMK AO2 SLP160 T00500017
Loading
Personal Weather Stations






























Interactive Weather Map New forecast layout! Learn more

10-Day Weather Forecast

Advertisements
Track Severe Weather on mobile